Time;durP1;ratioP1;P1;durP2;ratioP2;P2;SDS_P1;SDS_P2;PMS_P1;PMS_P2;Temp;Humidity;BMP_temperature;BMP_pressure;BME280_temperature;BME280_humidity;BME280_pressure;Samples;Min_cycle;Max_cycle;Signal;HPM_P1;HPM_P2
2022/10/26 00:00:09;;;;;;;;;;;10.60;99.90;;;;;;5077557;28;19978;-81
2022/10/26 00:02:38;;;;;;;;;;;10.60;99.90;;;;;;5094392;28;19928;-81
2022/10/26 00:05:06;;;;;;;;;;;10.70;99.90;;;;;;5093809;28;19924;-81
2022/10/26 00:07:33;;;;;;;;;;;10.70;99.90;;;;;;5096223;28;20053;-81
2022/10/26 00:10:02;;;;;;;;;;;10.80;99.90;;;;;;5095885;28;19960;-82
2022/10/26 00:12:29;;;;;;;;;;;10.80;99.90;;;;;;5094915;28;19928;-81
2022/10/26 00:14:57;;;;;;;;;;;10.90;99.90;;;;;;5095203;28;19932;-81
2022/10/26 00:17:24;;;;;;;;;;;10.90;99.90;;;;;;5096445;28;19928;-81
2022/10/26 00:19:51;;;;;;;;;;;11.00;99.90;;;;;;5095058;28;19927;-82
2022/10/26 00:22:18;;;;;;;;;;;11.10;99.90;;;;;;5095306;28;20316;-82
2022/10/26 00:24:45;;;;;;;;;;;11.10;99.90;;;;;;5095909;28;19935;-82
2022/10/26 00:27:12;;;;;;;;;;;11.10;99.90;;;;;;5082855;28;19977;-83
2022/10/26 00:29:39;;;;;;;;;;;11.20;99.90;;;;;;5095873;28;19924;-82
2022/10/26 00:32:07;;;;;;;;;;;11.30;99.90;;;;;;5096992;28;19939;-82
2022/10/26 00:34:34;;;;;;;;;;;11.30;99.90;;;;;;5090430;28;19929;-83
2022/10/26 00:37:02;;;;;;;;;;;11.40;99.90;;;;;;5075353;28;20447;-82
2022/10/26 00:39:29;;;;;;;;;;;11.50;99.90;;;;;;5075633;28;19974;-82
2022/10/26 00:41:55;;;;;;;;;;;11.50;99.90;;;;;;5081575;28;19928;-83
2022/10/26 00:44:56;;;;;;;;;;;11.60;99.90;;;;;;5089019;28;20399;-82
2022/10/26 00:47:27;;;;;;;;;;;11.70;99.90;;;;;;4994460;28;19936;-83
2022/10/26 00:49:56;;;;;;;;;;;11.80;99.90;;;;;;4987886;28;19979;-82
2022/10/26 00:52:23;;;;;;;;;;;11.90;99.90;;;;;;5042845;28;19928;-82
2022/10/26 00:54:52;;;;;;;;;;;11.90;99.90;;;;;;5077678;28;20437;-83
2022/10/26 00:57:19;;;;;;;;;;;12.00;99.90;;;;;;5096475;28;19961;-82
2022/10/26 00:59:47;;;;;;;;;;;12.00;99.90;;;;;;5087214;28;20277;-81
2022/10/26 01:02:14;;;;;;;;;;;12.00;99.90;;;;;;5075910;28;19928;-81
2022/10/26 01:04:42;;;;;;;;;;;12.00;99.90;;;;;;5083374;28;19928;-81
2022/10/26 01:07:09;;;;;;;;;;;12.00;99.90;;;;;;5076839;28;20038;-82
2022/10/26 01:09:36;;;;;;;;;;;12.00;99.90;;;;;;5073934;28;19928;-80
2022/10/26 01:12:03;;;;;;;;;;;11.90;99.90;;;;;;5077099;28;19951;-81
2022/10/26 01:14:30;;;;;;;;;;;11.90;99.90;;;;;;5085767;28;19928;-81
2022/10/26 01:17:02;;;;;;;;;;;11.90;99.90;;;;;;5079064;28;20011;-80
2022/10/26 01:19:52;;;;;;;;;;;11.90;99.90;;;;;;5077466;28;19977;-81
2022/10/26 01:22:20;;;;;;;;;;;11.90;99.90;;;;;;5078558;28;19925;-81
2022/10/26 01:25:01;;;;;;;;;;;11.90;99.90;;;;;;5077993;28;19950;-81
2022/10/26 01:27:29;;;;;;;;;;;12.00;99.90;;;;;;5080110;28;19928;-82
2022/10/26 01:30:20;;;;;;;;;;;12.00;99.90;;;;;;5078468;28;20364;-81
2022/10/26 01:32:52;;;;;;;;;;;12.00;99.90;;;;;;5078503;28;19974;-81
2022/10/26 01:35:21;;;;;;;;;;;12.10;99.90;;;;;;5078399;28;19924;-81
2022/10/26 01:37:54;;;;;;;;;;;12.10;99.90;;;;;;5078927;28;19924;-81
2022/10/26 01:40:23;;;;;;;;;;;12.10;99.90;;;;;;5077046;28;19936;-81
2022/10/26 01:42:51;;;;;;;;;;;12.10;99.90;;;;;;5081151;28;19924;-79
2022/10/26 01:45:20;;;;;;;;;;;12.10;99.90;;;;;;5097521;28;19993;-81
2022/10/26 01:47:47;;;;;;;;;;;12.10;99.90;;;;;;5114698;28;19924;-81
2022/10/26 01:50:15;;;;;;;;;;;12.10;99.90;;;;;;5114207;28;20283;-81
2022/10/26 01:52:42;;;;;;;;;;;12.10;99.90;;;;;;5111546;28;19928;-82
2022/10/26 01:55:23;;;;;;;;;;;12.10;99.90;;;;;;5096008;28;20396;-82
2022/10/26 01:57:51;;;;;;;;;;;12.20;99.90;;;;;;5085765;28;19931;-82
2022/10/26 02:00:20;;;;;;;;;;;12.20;99.90;;;;;;5078498;28;19977;-82
2022/10/26 02:03:07;;;;;;;;;;;12.30;99.90;;;;;;5095132;28;20361;-83
2022/10/26 02:05:51;;;;;;;;;;;12.30;99.90;;;;;;5089538;28;19931;-83
2022/10/26 02:08:27;;;;;;;;;;;12.30;99.90;;;;;;5093717;28;19950;-82
2022/10/26 02:10:59;;;;;;;;;;;12.50;99.90;;;;;;5084341;28;19982;-82
2022/10/26 02:13:29;;;;;;;;;;;12.40;99.90;;;;;;5078637;28;19989;-82
2022/10/26 02:15:59;;;;;;;;;;;12.50;99.90;;;;;;5078733;28;19924;-82
2022/10/26 02:18:30;;;;;;;;;;;12.50;99.90;;;;;;5079083;28;20388;-82
2022/10/26 02:20:58;;;;;;;;;;;12.60;99.90;;;;;;5090176;28;19974;-82
2022/10/26 02:23:27;;;;;;;;;;;12.60;99.90;;;;;;5093726;28;19932;-82
2022/10/26 02:25:56;;;;;;;;;;;12.60;99.90;;;;;;5095324;28;19935;-82
2022/10/26 02:28:25;;;;;;;;;;;12.70;99.90;;;;;;5091467;28;19932;-82
2022/10/26 02:30:54;;;;;;;;;;;12.70;99.90;;;;;;5088820;28;19982;-82
2022/10/26 02:33:24;;;;;;;;;;;12.70;99.90;;;;;;5095899;28;19931;-81
2022/10/26 02:35:52;;;;;;;;;;;12.70;99.90;;;;;;5096213;28;19963;-81
2022/10/26 02:38:20;;;;;;;;;;;12.80;99.90;;;;;;5096578;28;19928;-82
2022/10/26 02:40:48;;;;;;;;;;;12.80;99.90;;;;;;5084540;28;20061;-82
2022/10/26 02:43:20;;;;;;;;;;;12.90;99.90;;;;;;5087058;28;19924;-82
2022/10/26 02:45:50;;;;;;;;;;;12.90;99.90;;;;;;5087548;28;19931;-81
2022/10/26 02:48:18;;;;;;;;;;;12.90;99.90;;;;;;5082525;28;19935;-81
2022/10/26 02:50:52;;;;;;;;;;;12.90;99.90;;;;;;5085751;28;19928;-82
2022/10/26 02:53:24;;;;;;;;;;;13.00;99.90;;;;;;5094511;28;19924;-81
2022/10/26 02:55:51;;;;;;;;;;;13.00;99.90;;;;;;5089640;28;20344;-81
2022/10/26 02:58:19;;;;;;;;;;;13.00;99.90;;;;;;5090188;28;19929;-81
2022/10/26 03:00:47;;;;;;;;;;;13.00;99.90;;;;;;5082072;28;20003;-80
2022/10/26 03:03:14;;;;;;;;;;;13.00;99.90;;;;;;5080285;28;19932;-81
2022/10/26 03:05:41;;;;;;;;;;;13.00;99.90;;;;;;5082581;28;19924;-81
2022/10/26 03:08:10;;;;;;;;;;;13.10;99.90;;;;;;5087725;28;19929;-81
2022/10/26 03:10:40;;;;;;;;;;;13.10;99.90;;;;;;5086541;28;19921;-77
2022/10/26 03:13:07;;;;;;;;;;;13.10;99.90;;;;;;5097318;28;19977;-79
2022/10/26 03:15:34;;;;;;;;;;;13.20;99.90;;;;;;5108137;28;19932;-78
2022/10/26 03:18:01;;;;;;;;;;;13.20;99.90;;;;;;5096171;28;19928;-81
2022/10/26 03:20:28;;;;;;;;;;;13.30;99.90;;;;;;5111463;28;20608;-80
2022/10/26 03:22:55;;;;;;;;;;;13.30;99.90;;;;;;5087047;28;20391;-79
2022/10/26 03:25:24;;;;;;;;;;;13.30;99.90;;;;;;5094592;28;20013;-81
2022/10/26 03:27:56;;;;;;;;;;;13.30;99.90;;;;;;5095072;28;20410;-79
2022/10/26 03:30:23;;;;;;;;;;;13.40;99.90;;;;;;5083802;28;19967;-77
2022/10/26 03:32:50;;;;;;;;;;;13.50;99.90;;;;;;5094829;28;19928;-80
2022/10/26 03:35:16;;;;;;;;;;;13.50;99.90;;;;;;5096976;28;19939;-78
2022/10/26 03:37:44;;;;;;;;;;;13.50;99.90;;;;;;5095735;28;20095;-79
2022/10/26 03:40:11;;;;;;;;;;;13.60;99.90;;;;;;5095658;28;20538;-79
2022/10/26 03:42:42;;;;;;;;;;;13.60;99.90;;;;;;5096250;28;19924;-78
2022/10/26 03:45:10;;;;;;;;;;;13.70;99.90;;;;;;5095664;28;19984;-78
2022/10/26 03:47:42;;;;;;;;;;;13.70;99.90;;;;;;5113443;28;19924;-78
2022/10/26 03:50:10;;;;;;;;;;;13.70;99.90;;;;;;5096497;28;19924;-78
2022/10/26 03:52:37;;;;;;;;;;;13.80;99.90;;;;;;5107289;28;19929;-79
2022/10/26 03:55:04;;;;;;;;;;;13.80;99.90;;;;;;5077626;28;19924;-78
2022/10/26 03:57:31;;;;;;;;;;;13.90;99.90;;;;;;5093656;28;19935;-78
2022/10/26 04:00:00;;;;;;;;;;;13.90;99.90;;;;;;5095933;28;19951;-78
2022/10/26 04:02:26;;;;;;;;;;;13.90;99.90;;;;;;5096938;28;19928;-79
2022/10/26 04:04:53;;;;;;;;;;;14.00;99.90;;;;;;5077405;28;19929;-78
2022/10/26 04:07:20;;;;;;;;;;;14.00;99.90;;;;;;5090513;28;20346;-80
2022/10/26 04:09:47;;;;;;;;;;;14.10;99.90;;;;;;5095954;28;19928;-79
2022/10/26 04:12:14;;;;;;;;;;;14.10;99.90;;;;;;5089818;28;19935;-79
2022/10/26 04:14:41;;;;;;;;;;;14.20;99.90;;;;;;5108764;28;19939;-80
2022/10/26 04:17:10;;;;;;;;;;;14.30;99.90;;;;;;5076386;28;19925;-80
2022/10/26 04:19:37;;;;;;;;;;;14.30;99.90;;;;;;5093215;28;19946;-78
2022/10/26 04:22:04;;;;;;;;;;;14.40;99.90;;;;;;5093209;28;19928;-79
2022/10/26 04:24:31;;;;;;;;;;;14.40;99.90;;;;;;5101784;28;19924;-77
2022/10/26 04:26:58;;;;;;;;;;;14.40;99.90;;;;;;5101282;28;20023;-81
2022/10/26 04:29:25;;;;;;;;;;;14.50;99.90;;;;;;5101340;28;20369;-78
2022/10/26 04:31:52;;;;;;;;;;;15.80;99.90;;;;;;5101998;28;19947;-80
2022/10/26 04:34:20;;;;;;;;;;;14.60;99.90;;;;;;5096605;28;19924;-78
2022/10/26 04:36:48;;;;;;;;;;;14.60;99.90;;;;;;5099579;28;19928;-77
2022/10/26 04:39:15;;;;;;;;;;;14.60;99.90;;;;;;5095003;28;19928;-79
2022/10/26 04:41:42;;;;;;;;;;;14.70;99.90;;;;;;5108573;28;19939;-78
2022/10/26 04:44:09;;;;;;;;;;;14.70;99.90;;;;;;5088084;28;19927;-80
2022/10/26 04:46:36;;;;;;;;;;;14.70;99.90;;;;;;5093518;28;19928;-79
2022/10/26 04:49:03;;;;;;;;;;;14.80;99.90;;;;;;5100264;28;19928;-77
2022/10/26 04:51:32;;;;;;;;;;;14.80;99.90;;;;;;5093160;28;19960;-78
2022/10/26 04:53:59;;;;;;;;;;;14.80;99.90;;;;;;5103150;28;19920;-80
2022/10/26 04:56:26;;;;;;;;;;;14.80;99.90;;;;;;5094590;28;19928;-77
2022/10/26 04:58:53;;;;;;;;;;;14.80;99.90;;;;;;5092138;28;20023;-76
2022/10/26 05:01:21;;;;;;;;;;;14.90;99.90;;;;;;5092143;28;19934;-78
2022/10/26 05:03:49;;;;;;;;;;;14.90;99.90;;;;;;5090349;28;19924;-78
2022/10/26 05:06:16;;;;;;;;;;;14.90;99.90;;;;;;5090251;28;19979;-76
2022/10/26 05:08:47;;;;;;;;;;;14.90;99.90;;;;;;5084953;28;19947;-77
2022/10/26 05:11:14;;;;;;;;;;;14.90;99.90;;;;;;5082912;28;20076;-77
2022/10/26 05:13:44;;;;;;;;;;;14.90;99.90;;;;;;5088081;28;20292;-76
2022/10/26 05:16:11;;;;;;;;;;;14.90;99.90;;;;;;5088431;28;19951;-78
2022/10/26 05:18:38;;;;;;;;;;;15.00;99.90;;;;;;5085141;28;19928;-77
2022/10/26 05:21:05;;;;;;;;;;;14.90;99.90;;;;;;5083410;28;20418;-77
2022/10/26 05:23:32;;;;;;;;;;;14.90;99.90;;;;;;5077310;28;19939;-77
2022/10/26 05:26:01;;;;;;;;;;;14.90;99.90;;;;;;5081890;28;19936;-78
2022/10/26 05:28:28;;;;;;;;;;;14.80;99.90;;;;;;5085297;28;20006;-77
2022/10/26 05:30:55;;;;;;;;;;;;;;;;;;5079979;28;19925;-76
2022/10/26 05:33:22;;;;;;;;;;;14.70;99.90;;;;;;5076183;28;19932;-76
2022/10/26 05:35:53;;;;;;;;;;;14.70;99.90;;;;;;5091054;28;19923;-77
2022/10/26 05:38:20;;;;;;;;;;;14.60;99.90;;;;;;5092107;28;19935;-78
2022/10/26 05:40:48;;;;;;;;;;;14.60;99.90;;;;;;5092198;28;19970;-77
2022/10/26 05:43:15;;;;;;;;;;;;;;;;;;5086717;28;19932;-78
2022/10/26 05:45:43;;;;;;;;;;;14.50;99.90;;;;;;5075031;28;19935;-78
2022/10/26 05:48:11;;;;;;;;;;;14.50;99.90;;;;;;5083788;28;20341;-82
2022/10/26 05:50:38;;;;;;;;;;;14.50;99.90;;;;;;5076841;28;19934;-82
2022/10/26 05:53:05;;;;;;;;;;;14.40;99.90;;;;;;5085271;28;19933;-81
2022/10/26 05:55:32;;;;;;;;;;;14.50;99.90;;;;;;5090659;28;19928;-82
2022/10/26 05:58:00;;;;;;;;;;;14.50;99.90;;;;;;5084424;28;19924;-81
2022/10/26 06:00:28;;;;;;;;;;;14.50;99.90;;;;;;5090079;28;19936;-82
2022/10/26 06:03:07;;;;;;;;;;;14.50;99.90;;;;;;5080937;28;19928;-82
2022/10/26 06:05:36;;;;;;;;;;;14.50;99.90;;;;;;5070818;28;19928;-81
2022/10/26 06:08:03;;;;;;;;;;;14.60;99.90;;;;;;5085745;28;19973;-81
2022/10/26 06:10:30;;;;;;;;;;;14.60;99.90;;;;;;5084947;28;19950;-81
2022/10/26 06:12:57;;;;;;;;;;;14.30;99.90;;;;;;5087305;28;19939;-81
2022/10/26 06:15:24;;;;;;;;;;;14.60;99.90;;;;;;5089790;28;19924;-83
2022/10/26 06:17:57;;;;;;;;;;;14.60;99.90;;;;;;5086231;28;19993;-83
2022/10/26 06:20:30;;;;;;;;;;;14.60;99.90;;;;;;5085917;28;19924;-81
2022/10/26 06:23:05;;;;;;;;;;;14.70;99.90;;;;;;5087786;28;19925;-82
2022/10/26 06:25:44;;;;;;;;;;;14.70;99.90;;;;;;5084610;28;19951;-82
2022/10/26 06:28:19;;;;;;;;;;;14.70;99.90;;;;;;5087717;28;19985;-82
2022/10/26 06:30:46;;;;;;;;;;;14.70;99.90;;;;;;5080444;28;19935;-83
2022/10/26 06:33:14;;;;;;;;;;;14.70;99.90;;;;;;5089078;28;19958;-82
2022/10/26 06:35:48;;;;;;;;;;;14.70;99.90;;;;;;5085999;28;19958;-83
2022/10/26 06:38:16;;;;;;;;;;;14.70;99.90;;;;;;5086279;28;19924;-82
2022/10/26 06:40:46;;;;;;;;;;;14.80;99.90;;;;;;5083120;28;20352;-81
2022/10/26 06:43:14;;;;;;;;;;;14.80;99.90;;;;;;5078232;28;19947;-81
2022/10/26 06:45:43;;;;;;;;;;;14.80;99.90;;;;;;5080821;28;19928;-83
2022/10/26 06:48:14;;;;;;;;;;;14.80;99.90;;;;;;5093832;28;20108;-79
2022/10/26 06:50:47;;;;;;;;;;;14.80;99.90;;;;;;5084854;28;19931;-78
2022/10/26 06:53:18;;;;;;;;;;;14.90;99.90;;;;;;5072078;28;19932;-78
2022/10/26 06:55:48;;;;;;;;;;;14.90;99.90;;;;;;5073423;28;20367;-77
2022/10/26 06:58:19;;;;;;;;;;;14.90;99.90;;;;;;5076636;28;19925;-78
2022/10/26 07:00:48;;;;;;;;;;;15.00;99.90;;;;;;5076921;28;20027;-78
2022/10/26 07:03:18;;;;;;;;;;;15.10;99.90;;;;;;5078546;28;19932;-77
2022/10/26 07:05:46;;;;;;;;;;;15.10;99.90;;;;;;5079791;28;19925;-78
2022/10/26 07:08:13;;;;;;;;;;;15.20;99.90;;;;;;5089254;28;19928;-79
2022/10/26 07:10:41;;;;;;;;;;;15.30;99.90;;;;;;5099884;28;19923;-79
2022/10/26 07:13:09;;;;;;;;;;;15.40;99.90;;;;;;5099804;28;19928;-79
2022/10/26 07:15:36;;;;;;;;;;;15.40;99.90;;;;;;5099397;28;19944;-79
2022/10/26 07:18:05;;;;;;;;;;;15.50;99.90;;;;;;5100938;28;19928;-78
2022/10/26 07:20:33;;;;;;;;;;;15.60;99.90;;;;;;5097984;28;19985;-79
2022/10/26 07:23:02;;;;;;;;;;;15.60;99.90;;;;;;5096949;28;19924;-78
2022/10/26 07:25:29;;;;;;;;;;;15.70;99.90;;;;;;5098082;28;19947;-79
2022/10/26 07:27:57;;;;;;;;;;;15.70;99.90;;;;;;5100082;28;19985;-79
2022/10/26 07:30:24;;;;;;;;;;;15.80;99.90;;;;;;5099256;28;19928;-79
2022/10/26 07:32:51;;;;;;;;;;;15.80;99.90;;;;;;5098360;28;19932;-79
2022/10/26 07:35:18;;;;;;;;;;;16.10;99.90;;;;;;5079641;28;19933;-79
2022/10/26 07:37:44;;;;;;;;;;;16.30;99.90;;;;;;5079675;28;19935;-78
2022/10/26 07:40:13;;;;;;;;;;;16.50;99.90;;;;;;5079365;28;19924;-77
2022/10/26 07:42:40;;;;;;;;;;;16.50;99.90;;;;;;5081496;28;19950;-79
2022/10/26 07:45:07;;;;;;;;;;;16.50;99.90;;;;;;5078879;28;19933;-78
2022/10/26 07:47:34;;;;;;;;;;;16.50;99.90;;;;;;5079168;28;19936;-78
2022/10/26 07:50:02;;;;;;;;;;;16.60;99.90;;;;;;5079013;28;20008;-79
2022/10/26 07:52:29;;;;;;;;;;;14.70;99.90;;;;;;5079066;28;19939;-78
2022/10/26 07:54:59;;;;;;;;;;;17.30;99.90;;;;;;5077372;28;19932;-78
2022/10/26 07:57:27;;;;;;;;;;;17.80;99.90;;;;;;5079456;28;19946;-77
2022/10/26 07:59:54;;;;;;;;;;;18.10;99.90;;;;;;5077512;28;20061;-79
2022/10/26 08:02:21;;;;;;;;;;;18.50;99.90;;;;;;5076987;28;20017;-78
2022/10/26 08:04:49;;;;;;;;;;;18.70;99.90;;;;;;5078462;28;19932;-79
2022/10/26 08:07:16;;;;;;;;;;;18.80;99.90;;;;;;5080383;28;19928;-79
2022/10/26 08:09:43;;;;;;;;;;;19.00;99.90;;;;;;5080362;28;19929;-78
2022/10/26 08:12:12;;;;;;;;;;;19.00;99.90;;;;;;5078172;28;19964;-79
2022/10/26 08:14:40;;;;;;;;;;;19.30;99.90;;;;;;5078084;28;19978;-79
2022/10/26 08:17:07;;;;;;;;;;;19.50;99.90;;;;;;5078081;28;19935;-80
2022/10/26 08:19:34;;;;;;;;;;;19.70;99.90;;;;;;5076971;28;19951;-80
2022/10/26 08:22:01;;;;;;;;;;;20.00;99.90;;;;;;5077375;28;19928;-79
2022/10/26 08:24:29;;;;;;;;;;;20.00;99.90;;;;;;5077515;28;19924;-78
2022/10/26 08:26:56;;;;;;;;;;;20.00;99.90;;;;;;5079071;28;19928;-78
2022/10/26 08:29:23;;;;;;;;;;;19.90;99.90;;;;;;5078863;28;19944;-79
2022/10/26 08:31:52;;;;;;;;;;;19.90;99.90;;;;;;5077755;28;20007;-78
2022/10/26 08:34:18;;;;;;;;;;;19.80;99.90;;;;;;5078262;28;19925;-78
2022/10/26 08:36:48;;;;;;;;;;;19.70;99.90;;;;;;5077782;28;19929;-79
2022/10/26 08:39:15;;;;;;;;;;;19.70;99.90;;;;;;5079020;28;19936;-79
2022/10/26 08:41:44;;;;;;;;;;;19.60;99.90;;;;;;5077161;28;20045;-78
2022/10/26 08:44:18;;;;;;;;;;;19.50;99.90;;;;;;5079077;28;20019;-79
2022/10/26 08:46:48;;;;;;;;;;;19.30;99.90;;;;;;5077914;28;19928;-78
2022/10/26 08:49:19;;;;;;;;;;;19.10;99.90;;;;;;5078967;28;19931;-78
2022/10/26 08:51:47;;;;;;;;;;;18.90;99.90;;;;;;5088962;28;19924;-79
2022/10/26 08:54:18;;;;;;;;;;;18.70;99.90;;;;;;5103433;28;19963;-79
2022/10/26 08:56:47;;;;;;;;;;;18.50;99.90;;;;;;5104370;28;20241;-78
2022/10/26 08:59:17;;;;;;;;;;;18.50;99.90;;;;;;5104278;28;20429;-78
2022/10/26 09:01:44;;;;;;;;;;;18.40;99.90;;;;;;5105590;28;19928;-79
2022/10/26 09:04:12;;;;;;;;;;;18.20;99.90;;;;;;5104748;28;19959;-78
2022/10/26 09:06:46;;;;;;;;;;;18.40;99.90;;;;;;5100576;28;19924;-79
2022/10/26 09:09:16;;;;;;;;;;;18.30;99.90;;;;;;5097956;28;20026;-79
2022/10/26 09:11:50;;;;;;;;;;;18.10;99.90;;;;;;5096974;28;19935;-79
2022/10/26 09:14:18;;;;;;;;;;;18.10;99.90;;;;;;5096917;28;19936;-79
2022/10/26 09:16:51;;;;;;;;;;;18.10;99.90;;;;;;5096940;28;20019;-79
2022/10/26 09:19:32;;;;;;;;;;;18.20;99.90;;;;;;5096178;28;19931;-77
2022/10/26 09:22:03;;;;;;;;;;;18.20;99.90;;;;;;5092182;28;19935;-77
2022/10/26 09:24:32;;;;;;;;;;;18.20;99.90;;;;;;5096404;28;20069;-77
2022/10/26 09:27:03;;;;;;;;;;;18.20;99.90;;;;;;5093358;28;19935;-77
2022/10/26 09:29:32;;;;;;;;;;;18.20;99.90;;;;;;5092239;28;20509;-76
2022/10/26 09:32:01;;;;;;;;;;;18.20;99.90;;;;;;5092906;28;19925;-77
2022/10/26 09:34:31;;;;;;;;;;;18.20;99.90;;;;;;5093841;28;19931;-78
2022/10/26 09:36:58;;;;;;;;;;;18.30;99.90;;;;;;5093292;28;19931;-77
2022/10/26 09:39:30;;;;;;;;;;;18.40;99.90;;;;;;5096585;28;19927;-78
2022/10/26 09:41:59;;;;;;;;;;;18.60;99.90;;;;;;5098991;28;20386;-78
2022/10/26 09:44:29;;;;;;;;;;;18.80;99.90;;;;;;5097589;28;19924;-77
2022/10/26 09:46:58;;;;;;;;;;;18.90;99.90;;;;;;5097865;28;19925;-77
2022/10/26 09:49:30;;;;;;;;;;;19.10;99.90;;;;;;5099646;28;19951;-77
2022/10/26 09:51:57;;;;;;;;;;;19.30;99.90;;;;;;5097593;28;20375;-79
2022/10/26 09:54:23;;;;;;;;;;;19.50;99.90;;;;;;5097156;28;19924;-77
2022/10/26 09:56:54;;;;;;;;;;;19.60;99.90;;;;;;5097753;28;19935;-79
2022/10/26 09:59:22;;;;;;;;;;;19.70;99.90;;;;;;5098193;28;19928;-79
2022/10/26 10:01:49;;;;;;;;;;;19.80;99.90;;;;;;5098474;28;19985;-79
2022/10/26 10:04:18;;;;;;;;;;;19.90;99.90;;;;;;5096631;28;19924;-79
2022/10/26 10:06:46;;;;;;;;;;;19.90;99.90;;;;;;5095816;28;20392;-77
2022/10/26 10:09:14;;;;;;;;;;;20.00;99.90;;;;;;5094951;28;19928;-79
2022/10/26 10:11:41;;;;;;;;;;;20.10;99.90;;;;;;5098872;28;19924;-79
2022/10/26 10:14:17;;;;;;;;;;;20.20;99.90;;;;;;5097001;28;19991;-78
2022/10/26 10:16:53;;;;;;;;;;;20.20;99.90;;;;;;5096831;28;19958;-78
2022/10/26 10:19:24;;;;;;;;;;;20.30;99.90;;;;;;5097012;28;19928;-79
2022/10/26 10:21:52;;;;;;;;;;;20.40;99.90;;;;;;5096463;28;20411;-79
2022/10/26 10:24:23;;;;;;;;;;;20.40;99.90;;;;;;5098059;28;20022;-77
2022/10/26 10:27:00;;;;;;;;;;;20.50;99.90;;;;;;5096487;28;19928;-79
2022/10/26 10:29:29;;;;;;;;;;;20.60;99.90;;;;;;5095726;28;19995;-78
2022/10/26 10:31:56;;;;;;;;;;;20.70;99.90;;;;;;5099836;28;20385;-78
2022/10/26 10:34:23;;;;;;;;;;;20.70;99.90;;;;;;5100723;28;19977;-78
2022/10/26 10:36:50;;;;;;;;;;;22.00;99.90;;;;;;5099555;28;19961;-79
2022/10/26 10:39:28;;;;;;;;;;;20.90;99.90;;;;;;5099677;28;19993;-77
2022/10/26 10:41:55;;;;;;;;;;;21.00;99.90;;;;;;5101355;28;19959;-78
2022/10/26 10:44:24;;;;;;;;;;;21.10;99.90;;;;;;5098837;28;19927;-77
2022/10/26 10:46:59;;;;;;;;;;;21.10;99.90;;;;;;5100702;28;19924;-80
2022/10/26 10:49:27;;;;;;;;;;;21.30;99.90;;;;;;5101651;28;19928;-77
2022/10/26 10:51:55;;;;;;;;;;;21.50;99.90;;;;;;5102172;28;20374;-78
2022/10/26 10:54:24;;;;;;;;;;;21.50;99.90;;;;;;5100743;28;19995;-76
2022/10/26 10:56:53;;;;;;;;;;;21.70;99.90;;;;;;5099727;28;20034;-78
2022/10/26 10:59:25;;;;;;;;;;;21.70;99.90;;;;;;5100586;28;19983;-79
2022/10/26 11:01:57;;;;;;;;;;;21.70;99.90;;;;;;5101480;28;20375;-80
2022/10/26 11:04:32;;;;;;;;;;;21.80;99.90;;;;;;5102967;28;19931;-80
2022/10/26 11:07:00;;;;;;;;;;;21.90;99.90;;;;;;5101193;28;19981;-79
2022/10/26 11:09:29;;;;;;;;;;;22.00;99.90;;;;;;5101344;28;20027;-78
2022/10/26 11:11:58;;;;;;;;;;;22.10;99.90;;;;;;5101211;28;19924;-79
2022/10/26 11:14:28;;;;;;;;;;;22.20;99.90;;;;;;5102359;28;19924;-80
2022/10/26 11:16:59;;;;;;;;;;;22.30;99.90;;;;;;5099838;28;19954;-79
2022/10/26 11:19:29;;;;;;;;;;;22.40;99.90;;;;;;5099589;28;19968;-80
2022/10/26 11:21:57;;;;;;;;;;;22.50;99.90;;;;;;5098141;28;19944;-79
2022/10/26 11:24:25;;;;;;;;;;;22.60;99.90;;;;;;5096786;28;19935;-80
2022/10/26 11:26:54;;;;;;;;;;;22.70;99.90;;;;;;5098083;28;19935;-79
2022/10/26 11:29:25;;;;;;;;;;;22.70;99.90;;;;;;5098454;28;19928;-79
2022/10/26 11:31:54;;;;;;;;;;;22.80;99.90;;;;;;5099794;28;19972;-78
2022/10/26 11:34:25;;;;;;;;;;;22.90;99.90;;;;;;5098004;28;19931;-78
2022/10/26 11:36:55;;;;;;;;;;;22.90;99.90;;;;;;5100025;28;19934;-79
2022/10/26 11:39:28;;;;;;;;;;;23.00;99.90;;;;;;5098108;28;19924;-79
2022/10/26 11:42:00;;;;;;;;;;;23.10;99.90;;;;;;5099471;28;20017;-79
2022/10/26 11:44:30;;;;;;;;;;;23.20;99.90;;;;;;5100236;28;19985;-79
2022/10/26 11:47:01;;;;;;;;;;;23.30;99.90;;;;;;5098792;28;20621;-79
2022/10/26 11:49:32;;;;;;;;;;;23.40;99.90;;;;;;5098477;28;20442;-79
2022/10/26 11:52:02;;;;;;;;;;;23.50;99.90;;;;;;5099024;28;19997;-80
2022/10/26 11:54:31;;;;;;;;;;;23.60;99.90;;;;;;5097700;28;19942;-80
2022/10/26 11:56:58;;;;;;;;;;;23.60;99.90;;;;;;5098531;28;19935;-80
2022/10/26 11:59:26;;;;;;;;;;;23.60;99.90;;;;;;5098483;28;19928;-80
2022/10/26 12:01:58;;;;;;;;;;;23.60;99.90;;;;;;5100832;28;19928;-78
2022/10/26 12:04:28;;;;;;;;;;;23.60;99.90;;;;;;5097305;28;20307;-78
2022/10/26 12:06:57;;;;;;;;;;;23.50;99.90;;;;;;5092674;28;19958;-78
2022/10/26 12:09:28;;;;;;;;;;;23.50;99.90;;;;;;5092777;28;19928;-78
2022/10/26 12:11:59;;;;;;;;;;;23.50;99.90;;;;;;5099217;28;19955;-76
2022/10/26 12:14:27;;;;;;;;;;;23.50;99.90;;;;;;5076957;28;19931;-76
2022/10/26 12:16:58;;;;;;;;;;;23.50;99.90;;;;;;5087988;28;19987;-76
2022/10/26 12:19:27;;;;;;;;;;;23.50;99.90;;;;;;5084827;28;19935;-76
2022/10/26 12:21:56;;;;;;;;;;;23.60;99.90;;;;;;5086773;28;20471;-76
2022/10/26 12:24:27;;;;;;;;;;;23.70;99.90;;;;;;5087349;28;19962;-76
2022/10/26 12:26:55;;;;;;;;;;;22.00;99.90;;;;;;5088290;28;20018;-77
2022/10/26 12:29:38;;;;;;;;;;;23.60;99.90;;;;;;5088378;28;19932;-76
2022/10/26 12:32:23;;;;;;;;;;;23.50;99.90;;;;;;5088175;28;19928;-76
2022/10/26 12:35:00;;;;;;;;;;;23.40;99.90;;;;;;5050481;28;20379;-76
2022/10/26 12:37:33;;;;;;;;;;;23.20;99.90;;;;;;5082952;28;20417;-76
2022/10/26 12:40:19;;;;;;;;;;;23.20;99.90;;;;;;5087207;28;19999;-76
2022/10/26 12:42:46;;;;;;;;;;;23.20;99.90;;;;;;5079342;28;19928;-76
2022/10/26 12:45:18;;;;;;;;;;;23.20;99.90;;;;;;5089438;28;19985;-76
2022/10/26 12:48:01;;;;;;;;;;;23.40;99.90;;;;;;5085285;28;20384;-76
2022/10/26 12:50:28;;;;;;;;;;;23.40;99.90;;;;;;5082534;28;19940;-76
2022/10/26 12:53:00;;;;;;;;;;;23.50;99.90;;;;;;5086761;28;19928;-77
2022/10/26 12:55:42;;;;;;;;;;;23.50;99.90;;;;;;5088668;28;20339;-76
2022/10/26 12:58:18;;;;;;;;;;;23.50;99.90;;;;;;5084119;28;19932;-76
2022/10/26 13:00:48;;;;;;;;;;;23.50;99.90;;;;;;5086098;28;19924;-78
2022/10/26 13:03:24;;;;;;;;;;;23.50;99.90;;;;;;5091423;28;20034;-77
2022/10/26 13:06:10;;;;;;;;;;;23.50;99.90;;;;;;5081574;28;19929;-77
2022/10/26 13:08:42;;;;;;;;;;;23.40;99.90;;;;;;5085434;28;19924;-77
2022/10/26 13:11:13;;;;;;;;;;;23.20;99.90;;;;;;5085635;28;19924;-77
2022/10/26 13:13:41;;;;;;;;;;;23.20;99.90;;;;;;5089877;28;19969;-77
2022/10/26 13:16:10;;;;;;;;;;;23.20;99.90;;;;;;5091354;28;19928;-78
2022/10/26 13:18:41;;;;;;;;;;;23.20;99.90;;;;;;5087422;28;20008;-77
2022/10/26 13:21:12;;;;;;;;;;;23.20;99.90;;;;;;5083094;28;19928;-77
2022/10/26 13:23:40;;;;;;;;;;;23.20;99.90;;;;;;5086984;28;20144;-77
2022/10/26 13:26:12;;;;;;;;;;;23.20;99.90;;;;;;5093137;28;20434;-77
2022/10/26 13:28:45;;;;;;;;;;;23.20;99.90;;;;;;5086532;28;19929;-77
2022/10/26 13:31:17;;;;;;;;;;;23.20;99.90;;;;;;5093638;28;20287;-78
2022/10/26 13:33:45;;;;;;;;;;;23.20;99.90;;;;;;5088569;28;19928;-80
2022/10/26 13:36:17;;;;;;;;;;;23.20;99.90;;;;;;5080889;28;19950;-76
2022/10/26 13:38:45;;;;;;;;;;;23.20;99.90;;;;;;5080808;28;20342;-77
2022/10/26 13:41:18;;;;;;;;;;;23.20;99.90;;;;;;5072937;28;20387;-77
2022/10/26 13:43:46;;;;;;;;;;;23.20;99.90;;;;;;5089373;28;19932;-77
2022/10/26 13:46:22;;;;;;;;;;;23.10;99.90;;;;;;5079400;28;19928;-77
2022/10/26 13:48:50;;;;;;;;;;;23.00;99.90;;;;;;5083611;28;20057;-77
2022/10/26 13:51:19;;;;;;;;;;;22.70;99.90;;;;;;5086088;28;19946;-76
2022/10/26 13:53:48;;;;;;;;;;;22.70;99.90;;;;;;5087966;28;20422;-77
2022/10/26 13:56:22;;;;;;;;;;;22.60;99.90;;;;;;5077650;28;19928;-78
2022/10/26 13:58:50;;;;;;;;;;;22.60;99.90;;;;;;5084576;28;19934;-77
2022/10/26 14:01:20;;;;;;;;;;;22.50;99.90;;;;;;5075681;28;19929;-77
2022/10/26 14:03:47;;;;;;;;;;;22.50;99.90;;;;;;5083076;28;19935;-77
2022/10/26 14:06:16;;;;;;;;;;;22.50;99.90;;;;;;5089658;28;19966;-77
2022/10/26 14:08:45;;;;;;;;;;;22.40;99.90;;;;;;5084102;28;20318;-77
2022/10/26 14:11:13;;;;;;;;;;;22.20;99.90;;;;;;5093407;28;19928;-77
2022/10/26 14:13:41;;;;;;;;;;;22.20;99.90;;;;;;5088239;28;19924;-77
2022/10/26 14:16:09;;;;;;;;;;;22.20;99.90;;;;;;5074542;28;19982;-77
2022/10/26 14:18:36;;;;;;;;;;;22.00;99.90;;;;;;5093533;28;20306;-77
2022/10/26 14:21:04;;;;;;;;;;;21.90;99.90;;;;;;5082157;28;19935;-78
2022/10/26 14:23:34;;;;;;;;;;;21.90;99.90;;;;;;5090570;28;20396;-78
2022/10/26 14:26:02;;;;;;;;;;;21.90;99.90;;;;;;5090923;28;19935;-78
2022/10/26 14:28:30;;;;;;;;;;;21.80;99.90;;;;;;5092363;28;19932;-78
2022/10/26 14:31:12;;;;;;;;;;;21.70;99.90;;;;;;5091525;28;19959;-77